sensor_id;sensor_type;location;lat;lon;timestamp;pressure;altitude;pressure_sealevel;temperature;humidity
62122;BME280;48108;47.532;19.084;2024-01-30T05:04:27;68162.34;;;-2.99;100.00
62122;BME280;48108;47.532;19.084;2024-01-30T05:07:31;68164.91;;;-2.94;100.00
62122;BME280;48108;47.532;19.084;2024-01-30T05:10:34;68181.88;;;-2.82;100.00
62122;BME280;48108;47.532;19.084;2024-01-30T05:13:37;68179.00;;;-2.84;100.00
62122;BME280;48108;47.532;19.084;2024-01-30T05:16:40;68182.13;;;-2.79;100.00
62122;BME280;48108;47.532;19.084;2024-01-30T05:19:44;68209.50;;;-2.62;100.00
62122;BME280;48108;47.532;19.084;2024-01-30T05:22:47;68245.38;;;-2.74;100.00
62122;BME280;48108;47.532;19.084;2024-01-30T05:25:50;68187.03;;;-2.77;100.00
62122;BME280;48108;47.532;19.084;2024-01-30T05:28:53;68181.00;;;-2.80;100.00
62122;BME280;48108;47.532;19.084;2024-01-30T05:31:56;68181.28;;;-2.82;100.00
62122;BME280;48108;47.532;19.084;2024-01-30T05:34:59;68184.75;;;-2.79;100.00
62122;BME280;48108;47.532;19.084;2024-01-30T05:38:03;68179.00;;;-2.84;100.00
62122;BME280;48108;47.532;19.084;2024-01-30T05:41:06;68189.31;;;-2.75;100.00
62122;BME280;48108;47.532;19.084;2024-01-30T05:44:09;68206.81;;;-2.57;100.00
62122;BME280;48108;47.532;19.084;2024-01-30T05:47:12;68257.19;;;-2.66;100.00
62122;BME280;48108;47.532;19.084;2024-01-30T05:50:15;68219.78;;;-2.48;100.00
62122;BME280;48108;47.532;19.084;2024-01-30T05:53:18;68218.13;;;-2.54;100.00
62122;BME280;48108;47.532;19.084;2024-01-30T05:56:21;68205.75;;;-2.63;100.00
62122;BME280;48108;47.532;19.084;2024-01-30T05:59:24;68185.00;;;-2.77;100.00
62122;BME280;48108;47.532;19.084;2024-01-30T06:02:26;68194.25;;;-2.73;100.00
62122;BME280;48108;47.532;19.084;2024-01-30T06:05:30;68188.44;;;-2.74;100.00
62122;BME280;48108;47.532;19.084;2024-01-30T06:08:33;68193.94;;;-2.71;100.00
62122;BME280;48108;47.532;19.084;2024-01-30T06:11:36;68208.28;;;-2.58;100.00
62122;BME280;48108;47.532;19.084;2024-01-30T06:14:39;68214.34;;;-2.55;100.00
62122;BME280;48108;47.532;19.084;2024-01-30T06:17:47;68198.50;;;-2.67;100.00
62122;BME280;48108;47.532;19.084;2024-01-30T06:20:50;68179.81;;;-2.81;100.00
62122;BME280;48108;47.532;19.084;2024-01-30T06:23:53;68170.41;;;-2.92;100.00
62122;BME280;48108;47.532;19.084;2024-01-30T06:26:55;68159.81;;;-3.04;100.00
62122;BME280;48108;47.532;19.084;2024-01-30T06:29:59;68157.75;;;-3.03;100.00
62122;BME280;48108;47.532;19.084;2024-01-30T06:33:02;68211.22;;;-3.07;100.00
62122;BME280;48108;47.532;19.084;2024-01-30T06:36:05;68168.97;;;-2.96;100.00
62122;BME280;48108;47.532;19.084;2024-01-30T06:39:08;68165.53;;;-2.99;100.00
62122;BME280;48108;47.532;19.084;2024-01-30T06:42:11;68176.44;;;-2.89;100.00
62122;BME280;48108;47.532;19.084;2024-01-30T06:45:14;68191.06;;;-2.74;100.00
62122;BME280;48108;47.532;19.084;2024-01-30T06:48:18;68194.50;;;-2.70;100.00
62122;BME280;48108;47.532;19.084;2024-01-30T06:51:21;68195.41;;;-2.72;100.00
62122;BME280;48108;47.532;19.084;2024-01-30T06:54:24;68252.56;;;-2.70;100.00
62122;BME280;48108;47.532;19.084;2024-01-30T06:57:26;68219.78;;;-2.48;100.00
62122;BME280;48108;47.532;19.084;2024-01-30T07:00:31;68224.94;;;-2.43;100.00
62122;BME280;48108;47.532;19.084;2024-01-30T07:03:34;68237.88;;;-2.34;100.00
62122;BME280;48108;47.532;19.084;2024-01-30T07:06:37;68260.28;;;-2.14;100.00
62122;BME280;48108;47.532;19.084;2024-01-30T07:09:41;68272.34;;;-2.03;100.00
62122;BME280;48108;47.532;19.084;2024-01-30T07:12:44;68286.41;;;-1.89;100.00
62122;BME280;48108;47.532;19.084;2024-01-30T07:15:46;68304.81;;;-1.72;100.00
62122;BME280;48108;47.532;19.084;2024-01-30T07:18:50;68322.59;;;-1.56;100.00
62122;BME280;48108;47.532;19.084;2024-01-30T07:21:53;68348.47;;;-1.33;100.00
62122;BME280;48108;47.532;19.084;2024-01-30T07:24:56;68370.56;;;-1.11;100.00
62122;BME280;48108;47.532;19.084;2024-01-30T07:27:59;68414.63;;;-0.75;100.00
62122;BME280;48108;47.532;19.084;2024-01-30T07:31:02;68458.06;;;-0.38;100.00
62122;BME280;48108;47.532;19.084;2024-01-30T07:34:06;68485.38;;;-0.12;100.00
62122;BME280;48108;47.532;19.084;2024-01-30T07:37:10;68528.25;;;0.29;100.00
62122;BME280;48108;47.532;19.084;2024-01-30T07:40:14;68572.09;;;0.63;100.00
62122;BME280;48108;47.532;19.084;2024-01-30T07:43:17;68572.34;;;0.65;100.00
62122;BME280;48108;47.532;19.084;2024-01-30T07:46:20;68570.69;;;0.59;100.00
62122;BME280;48108;47.532;19.084;2024-01-30T07:49:23;68541.22;;;0.38;100.00
62122;BME280;48108;47.532;19.084;2024-01-30T07:52:26;68533.19;;;0.31;100.00
62122;BME280;48108;47.532;19.084;2024-01-30T07:55:30;68545.28;;;0.41;100.00
62122;BME280;48108;47.532;19.084;2024-01-30T07:58:34;68558.84;;;0.51;100.00
62122;BME280;48108;47.532;19.084;2024-01-30T08:01:38;68555.06;;;0.50;100.00
62122;BME280;48108;47.532;19.084;2024-01-30T08:04:41;68617.16;;;0.56;100.00
62122;BME280;48108;47.532;19.084;2024-01-30T08:07:44;68576.69;;;0.67;100.00
62122;BME280;48108;47.532;19.084;2024-01-30T08:10:51;68575.53;;;0.66;100.00
62122;BME280;48108;47.532;19.084;2024-01-30T08:13:55;68588.78;;;0.78;100.00
62122;BME280;48108;47.532;19.084;2024-01-30T08:16:58;68600.31;;;0.88;100.00
62122;BME280;48108;47.532;19.084;2024-01-30T08:20:01;68608.69;;;0.93;100.00
62122;BME280;48108;47.532;19.084;2024-01-30T08:23:04;68594.81;;;0.85;100.00
62122;BME280;48108;47.532;19.084;2024-01-30T08:26:07;68602.34;;;0.87;100.00
62122;BME280;48108;47.532;19.084;2024-01-30T08:29:11;68624.19;;;1.11;100.00
62122;BME280;48108;47.532;19.084;2024-01-30T08:32:14;68632.25;;;1.19;100.00
62122;BME280;48108;47.532;19.084;2024-01-30T08:35:17;68634.56;;;1.21;100.00
62122;BME280;48108;47.532;19.084;2024-01-30T08:38:20;68654.72;;;1.39;100.00
62122;BME280;48108;47.532;19.084;2024-01-30T08:41:23;68715.53;;;1.41;100.00
62122;BME280;48108;47.532;19.084;2024-01-30T08:44:27;68666.84;;;1.49;100.00
62122;BME280;48108;47.532;19.084;2024-01-30T08:47:30;68735.13;;;1.58;100.00
62122;BME280;48108;47.532;19.084;2024-01-30T08:50:33;68703.75;;;1.82;100.00
62122;BME280;48108;47.532;19.084;2024-01-30T08:53:37;68735.53;;;2.06;100.00
62122;BME280;48108;47.532;19.084;2024-01-30T08:56:40;68719.63;;;1.94;100.00
62122;BME280;48108;47.532;19.084;2024-01-30T08:59:43;68733.72;;;2.09;100.00
62122;BME280;48108;47.532;19.084;2024-01-30T09:02:48;68733.16;;;2.08;100.00
62122;BME280;48108;47.532;19.084;2024-01-30T09:05:51;68759.75;;;2.27;100.00
62122;BME280;48108;47.532;19.084;2024-01-30T09:08:54;68769.50;;;2.40;100.00
62122;BME280;48108;47.532;19.084;2024-01-30T09:11:58;68822.91;;;2.85;100.00
62122;BME280;48108;47.532;19.084;2024-01-30T09:15:04;68846.56;;;3.06;100.00
62122;BME280;48108;47.532;19.084;2024-01-30T09:18:09;68855.25;;;3.14;100.00
62122;BME280;48108;47.532;19.084;2024-01-30T09:21:12;68868.53;;;3.26;100.00
62122;BME280;48108;47.532;19.084;2024-01-30T09:24:16;68888.22;;;3.38;100.00
62122;BME280;48108;47.532;19.084;2024-01-30T09:27:39;68886.09;;;3.44;100.00
62122;BME280;48108;47.532;19.084;2024-01-30T09:30:43;68914.97;;;3.69;100.00
62122;BME280;48108;47.532;19.084;2024-01-30T09:33:46;68887.00;;;3.42;100.00
62122;BME280;48108;47.532;19.084;2024-01-30T09:36:51;68861.34;;;3.17;100.00
62122;BME280;48108;47.532;19.084;2024-01-30T09:39:54;68866.78;;;3.24;100.00
62122;BME280;48108;47.532;19.084;2024-01-30T09:42:58;68882.94;;;3.38;100.00
62122;BME280;48108;47.532;19.084;2024-01-30T09:46:03;68899.44;;;3.51;100.00
62122;BME280;48108;47.532;19.084;2024-01-30T09:49:09;68889.56;;;3.47;100.00
62122;BME280;48108;47.532;19.084;2024-01-30T09:52:12;68879.16;;;3.37;100.00
62122;BME280;48108;47.532;19.084;2024-01-30T09:55:16;68858.13;;;3.16;100.00
62122;BME280;48108;47.532;19.084;2024-01-30T09:58:19;68882.69;;;3.36;100.00
62122;BME280;48108;47.532;19.084;2024-01-30T10:01:23;68890.13;;;3.47;100.00
62122;BME280;48108;47.532;19.084;2024-01-30T10:04:27;68924.53;;;3.75;100.00
62122;BME280;48108;47.532;19.084;2024-01-30T10:07:30;68941.88;;;3.91;100.00
62122;BME280;48108;47.532;19.084;2024-01-30T10:10:36;68944.75;;;3.93;100.00
62122;BME280;48108;47.532;19.084;2024-01-30T10:13:39;69018.72;;;4.59;100.00
62122;BME280;48108;47.532;19.084;2024-01-30T10:16:42;69082.00;;;5.17;100.00
62122;BME280;48108;47.532;19.084;2024-01-30T10:19:47;69108.97;;;5.38;100.00
62122;BME280;48108;47.532;19.084;2024-01-30T10:22:51;69123.44;;;5.51;100.00
62122;BME280;48108;47.532;19.084;2024-01-30T10:25:56;69141.47;;;5.62;100.00
62122;BME280;48108;47.532;19.084;2024-01-30T10:29:00;69183.13;;;5.55;100.00
62122;BME280;48108;47.532;19.084;2024-01-30T10:32:04;69148.31;;;5.73;100.00
62122;BME280;48108;47.532;19.084;2024-01-30T10:35:07;69104.09;;;5.32;100.00
62122;BME280;48108;47.532;19.084;2024-01-30T10:38:13;69121.69;;;5.50;100.00
62122;BME280;48108;47.532;19.084;2024-01-30T10:41:26;69125.75;;;5.53;100.00
62122;BME280;48108;47.532;19.084;2024-01-30T10:44:30;69129.56;;;5.54;100.00
62122;BME280;48108;47.532;19.084;2024-01-30T10:47:36;69123.19;;;5.49;100.00
62122;BME280;48108;47.532;19.084;2024-01-30T10:50:41;69190.59;;;6.10;100.00
62122;BME280;48108;47.532;19.084;2024-01-30T10:53:56;69203.00;;;6.24;100.00
62122;BME280;48108;47.532;19.084;2024-01-30T10:57:00;69201.59;;;6.20;100.00
62122;BME280;48108;47.532;19.084;2024-01-30T11:00:09;69149.47;;;5.74;100.00
62122;BME280;48108;47.532;19.084;2024-01-30T11:03:13;69152.38;;;5.77;100.00
62122;BME280;48108;47.532;19.084;2024-01-30T11:06:16;69169.81;;;5.43;100.00
62122;BME280;48108;47.532;19.084;2024-01-30T11:09:21;69130.03;;;5.59;100.00
62122;BME280;48108;47.532;19.084;2024-01-30T11:12:25;69135.59;;;5.62;100.00
62122;BME280;48108;47.532;19.084;2024-01-30T11:15:28;69202.81;;;5.72;100.00
62122;BME280;48108;47.532;19.084;2024-01-30T11:18:35;69163.34;;;5.86;100.00
62122;BME280;48108;47.532;19.084;2024-01-30T11:21:42;69147.72;;;5.73;100.00
62122;BME280;48108;47.532;19.084;2024-01-30T11:24:47;69159.31;;;5.83;100.00
62122;BME280;48108;47.532;19.084;2024-01-30T11:27:59;69241.66;;;6.06;100.00
62122;BME280;48108;47.532;19.084;2024-01-30T11:31:06;69174.72;;;5.94;100.00
62122;BME280;48108;47.532;19.084;2024-01-30T11:34:14;69194.06;;;6.13;100.00
62122;BME280;48108;47.532;19.084;2024-01-30T11:37:20;69174.03;;;5.98;100.00
62122;BME280;48108;47.532;19.084;2024-01-30T11:40:24;69172.66;;;5.95;100.00
62122;BME280;48108;47.532;19.084;2024-01-30T11:43:30;69190.00;;;6.10;100.00
62122;BME280;48108;47.532;19.084;2024-01-30T11:46:33;69238.91;;;6.55;100.00
62122;BME280;48108;47.532;19.084;2024-01-30T11:49:37;69272.00;;;6.80;100.00
62122;BME280;48108;47.532;19.084;2024-01-30T11:52:40;69272.81;;;6.83;100.00
62122;BME280;48108;47.532;19.084;2024-01-30T11:55:50;69299.81;;;7.04;100.00
62122;BME280;48108;47.532;19.084;2024-01-30T11:58:53;69318.03;;;7.23;100.00
62122;BME280;48108;47.532;19.084;2024-01-30T12:01:56;69393.97;;;7.90;100.00
62122;BME280;48108;47.532;19.084;2024-01-30T12:05:04;69492.94;;;8.75;92.52
62122;BME280;48108;47.532;19.084;2024-01-30T12:08:07;69539.00;;;8.66;87.76
62122;BME280;48108;47.532;19.084;2024-01-30T12:11:10;69467.97;;;8.53;87.35
62122;BME280;48108;47.532;19.084;2024-01-30T12:14:14;69538.19;;;9.15;84.82
62122;BME280;48108;47.532;19.084;2024-01-30T12:20:27;69607.28;;;9.75;75.97
62122;BME280;48108;47.532;19.084;2024-01-30T12:23:31;69642.38;;;10.09;72.89
62122;BME280;48108;47.532;19.084;2024-01-30T12:26:33;69719.09;;;10.76;67.03
62122;BME280;48108;47.532;19.084;2024-01-30T12:29:36;69715.72;;;10.69;63.14
62122;BME280;48108;47.532;19.084;2024-01-30T12:32:43;69959.19;;;12.85;57.07
62122;BME280;48108;47.532;19.084;2024-01-30T12:35:47;70037.25;;;13.53;49.94
62122;BME280;48108;47.532;19.084;2024-01-30T12:39:04;69959.19;;;12.85;50.82
62122;BME280;48108;47.532;19.084;2024-01-30T12:42:07;69975.13;;;13.01;51.16
62122;BME280;48108;47.532;19.084;2024-01-30T12:45:10;69994.69;;;13.16;49.72
62122;BME280;48108;47.532;19.084;2024-01-30T12:48:13;70097.63;;;14.04;46.56
62122;BME280;48108;47.532;19.084;2024-01-30T12:51:16;70260.81;;;15.52;41.54
62122;BME280;48108;47.532;19.084;2024-01-30T12:54:19;70278.69;;;15.65;39.75
62122;BME280;48108;47.532;19.084;2024-01-30T12:57:23;70320.28;;;15.97;39.20
62122;BME280;48108;47.532;19.084;2024-01-30T13:00:26;70432.22;;;16.92;36.66
62122;BME280;48108;47.532;19.084;2024-01-30T13:03:29;70497.13;;;17.49;34.47
62122;BME280;48108;47.532;19.084;2024-01-30T13:06:35;70463.66;;;17.25;35.93
62122;BME280;48108;47.532;19.084;2024-01-30T13:09:38;70460.16;;;17.21;36.30
62122;BME280;48108;47.532;19.084;2024-01-30T13:12:41;70385.94;;;16.57;35.40
62122;BME280;48108;47.532;19.084;2024-01-30T13:15:45;70204.72;;;14.95;38.22
62122;BME280;48108;47.532;19.084;2024-01-30T13:18:48;69892.00;;;12.23;43.79
62122;BME280;48108;47.532;19.084;2024-01-30T13:21:52;69748.28;;;10.97;47.79
62122;BME280;48108;47.532;19.084;2024-01-30T13:24:55;69585.56;;;9.54;53.24
62122;BME280;48108;47.532;19.084;2024-01-30T13:27:58;69444.84;;;8.28;58.06
62122;BME280;48108;47.532;19.084;2024-01-30T13:31:04;69369.09;;;7.63;61.19
62122;BME280;48108;47.532;19.084;2024-01-30T13:34:08;69308.50;;;7.12;63.89
62122;BME280;48108;47.532;19.084;2024-01-30T13:37:11;69259.25;;;6.69;67.48
62122;BME280;48108;47.532;19.084;2024-01-30T13:40:14;69228.00;;;6.41;70.43
62122;BME280;48108;47.532;19.084;2024-01-30T13:43:18;69190.94;;;6.08;70.82
62122;BME280;48108;47.532;19.084;2024-01-30T13:46:21;69182.50;;;6.03;72.15
62122;BME280;48108;47.532;19.084;2024-01-30T13:49:24;69178.44;;;6.00;70.67
62122;BME280;48108;47.532;19.084;2024-01-30T13:52:27;69157.22;;;5.83;71.90
62122;BME280;48108;47.532;19.084;2024-01-30T13:55:40;69155.59;;;5.77;71.24
62122;BME280;48108;47.532;19.084;2024-01-30T13:58:43;69121.09;;;5.49;70.89
62122;BME280;48108;47.532;19.084;2024-01-30T14:01:46;69112.19;;;5.39;72.82
62122;BME280;48108;47.532;19.084;2024-01-30T14:04:49;69113.59;;;5.42;67.87
62122;BME280;48108;47.532;19.084;2024-01-30T14:07:53;69102.25;;;5.35;69.09
62122;BME280;48108;47.532;19.084;2024-01-30T14:10:57;69098.53;;;5.29;71.06
62122;BME280;48108;47.532;19.084;2024-01-30T14:14:00;69096.25;;;5.27;69.29
62122;BME280;48108;47.532;19.084;2024-01-30T14:17:03;69097.97;;;5.29;67.90
62122;BME280;48108;47.532;19.084;2024-01-30T14:20:09;69096.56;;;5.25;67.49
62122;BME280;48108;47.532;19.084;2024-01-30T14:23:13;69084.09;;;5.16;68.18
62122;BME280;48108;47.532;19.084;2024-01-30T14:26:18;69073.44;;;5.05;69.11
62122;BME280;48108;47.532;19.084;2024-01-30T14:29:21;69067.06;;;4.99;69.60
62122;BME280;48108;47.532;19.084;2024-01-30T14:32:25;69051.69;;;4.88;71.08
62122;BME280;48108;47.532;19.084;2024-01-30T14:35:30;69057.47;;;4.93;70.59
62122;BME280;48108;47.532;19.084;2024-01-30T14:38:34;69051.13;;;4.87;72.40
62122;BME280;48108;47.532;19.084;2024-01-30T14:41:37;69038.66;;;4.78;73.67
62122;BME280;48108;47.532;19.084;2024-01-30T14:44:42;69046.81;;;4.81;70.40
62122;BME280;48108;47.532;19.084;2024-01-30T14:47:46;69050.06;;;4.82;71.09
62122;BME280;48108;47.532;19.084;2024-01-30T14:50:49;69047.06;;;4.84;70.95
62122;BME280;48108;47.532;19.084;2024-01-30T14:53:56;69043.28;;;4.83;70.99
62122;BME280;48108;47.532;19.084;2024-01-30T14:56:59;69037.00;;;4.72;72.19
62122;BME280;48108;47.532;19.084;2024-01-30T15:00:03;69030.88;;;4.69;73.63
62122;BME280;48108;47.532;19.084;2024-01-30T15:03:05;69028.91;;;4.65;73.88
62122;BME280;48108;47.532;19.084;2024-01-30T15:06:09;69022.56;;;4.60;74.62
62122;BME280;48108;47.532;19.084;2024-01-30T15:09:15;69024.28;;;4.61;75.51
62122;BME280;48108;47.532;19.084;2024-01-30T15:12:19;69018.72;;;4.59;76.08
62122;BME280;48108;47.532;19.084;2024-01-30T15:15:24;69005.44;;;4.47;76.91
62122;BME280;48108;47.532;19.084;2024-01-30T15:18:32;69002.78;;;4.47;76.08
62122;BME280;48108;47.532;19.084;2024-01-30T15:21:35;69000.56;;;4.40;77.60
62122;BME280;48108;47.532;19.084;2024-01-30T15:24:38;68990.75;;;4.31;78.89
62122;BME280;48108;47.532;19.084;2024-01-30T15:27:41;68974.56;;;4.17;79.89
62122;BME280;48108;47.532;19.084;2024-01-30T15:30:44;68954.00;;;4.01;83.40
62122;BME280;48108;47.532;19.084;2024-01-30T15:33:48;68925.38;;;3.78;86.25
62122;BME280;48108;47.532;19.084;2024-01-30T15:36:52;68911.50;;;3.66;89.05
62122;BME280;48108;47.532;19.084;2024-01-30T15:39:56;68900.88;;;3.54;91.73
62122;BME280;48108;47.532;19.084;2024-01-30T15:43:00;68893.09;;;3.45;94.82
62122;BME280;48108;47.532;19.084;2024-01-30T15:46:03;68880.31;;;3.38;96.41
62122;BME280;48108;47.532;19.084;2024-01-30T15:49:09;68861.25;;;3.22;98.32
62122;BME280;48108;47.532;19.084;2024-01-30T15:52:12;68864.72;;;3.25;100.00
62122;BME280;48108;47.532;19.084;2024-01-30T15:55:19;68857.78;;;3.18;100.00
62122;BME280;48108;47.532;19.084;2024-01-30T15:58:24;68849.47;;;3.09;100.00
62122;BME280;48108;47.532;19.084;2024-01-30T16:01:29;68830.97;;;2.92;100.00
62122;BME280;48108;47.532;19.084;2024-01-30T16:04:33;68817.47;;;2.78;100.00
62122;BME280;48108;47.532;19.084;2024-01-30T16:07:36;68803.84;;;2.68;100.00
62122;BME280;48108;47.532;19.084;2024-01-30T16:10:40;68788.53;;;2.57;100.00
62122;BME280;48108;47.532;19.084;2024-01-30T16:13:43;68779.88;;;2.49;100.00
62122;BME280;48108;47.532;19.084;2024-01-30T16:16:46;68770.97;;;2.39;100.00
62122;BME280;48108;47.532;19.084;2024-01-30T16:19:49;68762.91;;;2.32;100.00
62122;BME280;48108;47.532;19.084;2024-01-30T16:22:55;68755.97;;;2.26;100.00
62122;BME280;48108;47.532;19.084;2024-01-30T16:25:58;68749.06;;;2.20;100.00
62122;BME280;48108;47.532;19.084;2024-01-30T16:29:01;68798.03;;;2.14;100.00
62122;BME280;48108;47.532;19.084;2024-01-30T16:32:04;68737.00;;;2.04;100.00
62122;BME280;48108;47.532;19.084;2024-01-30T16:35:07;68724.00;;;1.95;100.00
62122;BME280;48108;47.532;19.084;2024-01-30T16:38:10;68715.59;;;1.90;100.00
62122;BME280;48108;47.532;19.084;2024-01-30T16:41:13;68706.03;;;1.84;100.00
62122;BME280;48108;47.532;19.084;2024-01-30T16:44:16;68706.13;;;1.79;100.00
62122;BME280;48108;47.532;19.084;2024-01-30T16:47:19;68698.28;;;1.75;100.00
62122;BME280;48108;47.532;19.084;2024-01-30T16:50:22;68693.94;;;1.73;100.00
62122;BME280;48108;47.532;19.084;2024-01-30T16:53:25;68688.50;;;1.66;100.00
